Latest Coastal Weather Observations for Evans Head

IDN60701

Issued at 10:03 am EDT Thursday 18 December 2014 (issued every 10 minutes, with the page automatically refreshed every 10 minutes)

About coastal observations | Map of coastal stations | Coastal observations for NSW | Marine services | Other Formats
Station Details ID: 058212 Name: EVANS HEAD RAAF BOMBING RANGE AWS Lat: -29.18 Lon: 153.40 Height: 62.5 m
Data from the previous 72 hours. | See also: Recent months at Evans Head
Date/Time
EDT
Temp

°C
Wind Pressure Rain
since 9am
mm
Weather Cloud Vis
km
Sea
Height
m
Swell
Dir
 
Speed
knots
Gust
knots
hPa Trend Height
m
Period
s
Dir
18/09:30am 22.2 NE 4 8 1010.1 - 0.6 - - - - - - -
18/09:00am 22.4 SSE 3 5 1010.3 - 2.2 - - - - - - -
18/08:30am 24.0 SSW 4 8 1010.0 - 2.2 - - - - - - -
18/08:00am 23.9 S 2 5 1009.4 - 2.2 - - - - - - -
18/07:30am 21.6 ENE 3 6 1008.9 - 2.2 - - - - - - -
18/07:00am 21.5 W 6 9 1009.3 - 2.2 - - - - - - -
18/06:30am 21.2 NW 3 4 1009.0 - 2.2 - - - - - - -
18/06:00am 20.7 NW 5 6 1008.9 - 2.2 Recent precip. - - - - - -
18/05:30am 20.4 N 6 8 1008.9 - 2.0 - - - - - - -
18/05:00am 20.8 N 6 9 1008.8 - 2.0 - - - - - - -
18/04:30am 21.1 NNW 6 10 1009.7 - 2.0 - - - - - - -
18/04:00am 21.4 W 10 20 1011.1 - 1.2 - - - - - - -
18/03:30am 22.0 WNW 7 13 1010.0 - 0.4 - - - - - - -
18/03:00am 21.9 E 9 13 1008.7 - 0.2 - - - - - - -
18/02:30am 22.1 NW 5 6 1009.7 - 0.2 - - - - - - -
18/02:00am 22.2 SW 5 8 1009.5 - 0.2 - - - - - - -
18/01:30am 22.6 SW 7 10 1010.1 - 0.2 - - - - - - -
18/01:00am 22.9 SSW 8 12 1010.1 - 0.2 - - - - - - -
18/12:30am 23.6 ESE 7 12 1010.2 - 0.2 - - - - - - -
 
Date/Time
EDT
Temp

°C
Wind Pressure Rain
since 9am
mm
Weather Cloud Vis
km
Sea
Height
m
Swell
Dir
 
Speed
knots
Gust
knots
hPa Trend Height
m
Period
s
Dir
17/11:30pm 23.1 ESE 11 15 1009.2 - 0.2 - - - - - - -
17/11:00pm 22.6 SSE 12 18 1009.6 - 0.2 - - - - - - -
17/10:30pm 22.7 SSE 15 20 1009.6 - 0.2 - - - - - - -
17/10:00pm 23.4 SSE 17 25 1009.5 - 0.2 - - - - - - -
17/09:34pm 23.8 SSE 20 30 1008.9 - 0.2 - - - - - - -
17/09:30pm 23.8 SSE 19 27 1008.9 - 0.2 - - - - - - -
17/09:09pm 23.8 SSE 16 26 1008.5 - 0.2 - - - - - - -
17/09:00pm 23.7 SSE 15 21 1008.2 - 0.2 - - - - - - -
17/08:30pm 23.9 SSE 16 22 1007.1 - 0.2 - - - - - - -
17/08:00pm 23.8 SSE 17 24 1006.6 - 0.2 - - - - - - -
17/07:41pm 24.0 SSE 17 27 1006.0 - 0.2 - - - - - - -
17/07:30pm 24.1 S 19 27 1005.6 - 0.2 - - - - - - -
17/07:14pm 24.3 S 19 29 1005.1 - 0.2 - - - - - - -
17/07:00pm 24.5 S 17 24 1004.9 - 0.2 - - - - - - -
17/06:30pm 24.9 S 16 22 1004.5 - 0.2 - - - - - - -
17/06:00pm 27.0 SE 11 25 1003.4 - 0.2 - - - - - - -
17/05:57pm 28.2 N 9 25 1003.3 - 0.2 - - - - - - -
17/05:30pm 32.1 NNE 9 13 1002.4 - 0.2 - - - - - - -
17/05:00pm 32.1 N 10 14 1002.2 - 0.2 - - - - - - -
17/04:30pm 30.3 N 6 9 1002.2 - 0.2 - - - - - - -
17/04:00pm 31.8 N 7 10 1002.4 - 0.2 - - - - - - -
17/03:30pm 33.6 NNE 9 13 1002.6 - 0.2 - - - - - - -
17/03:00pm 31.8 ENE 6 8 1003.1 - 0.0 - - - - - - -
17/02:30pm 34.7 E 9 13 1002.9 - 0.0 - - - - - - -
17/02:00pm 34.7 E 7 9 1003.2 - 0.0 - - - - - - -
17/01:30pm 37.6 W 3 10 1003.4 - 0.0 - - - - - - -
17/01:00pm 36.8 W 6 11 1003.7 - 0.0 - - - - - - -
17/12:30pm 36.1 NW 5 14 1003.8 - 0.0 - - - - - - -
17/12:00pm 34.5 WNW 5 9 1004.1 - 0.0 - - - - - - -
17/11:30am 34.2 NW 4 10 1004.3 - 0.0 - - - - - - -
17/11:00am 32.4 NW 7 11 1004.4 - 0.0 - - - - - - -
17/10:30am 31.2 NW 8 13 1004.4 - 0.0 - - - - - - -
17/10:00am 29.9 NW 8 17 1004.6 - 0.0 - - - - - - -
17/09:30am 28.8 NW 8 13 1004.7 - 0.0 - - - - - - -
17/09:00am 27.3 NW 9 14 1004.8 - 4.6 - - - - - - -
17/08:30am 25.5 NNW 7 12 1005.1 - 4.6 - - - - - - -
17/08:00am 24.1 NNW 6 9 1005.2 - 4.6 - - - - - - -
17/07:30am 22.8 NNW 6 9 1004.9 - 4.6 - - - - - - -
17/07:00am 21.7 NNW 6 10 1004.6 - 4.6 - - - - - - -
17/06:30am 20.9 NW 6 9 1004.5 - 4.6 - - - - - - -
17/06:00am 20.5 NW 6 12 1004.1 - 4.6 - - - - - - -
17/05:30am 20.4 NW 6 11 1003.7 - 4.6 - - - - - - -
17/05:00am 20.3 NW 7 13 1003.5 - 4.6 - - - - - - -
17/04:30am 20.4 NNW 6 9 1003.4 - 4.6 - - - - - - -
17/04:00am 20.5 NNW 9 15 1003.2 - 4.6 - - - - - - -
17/03:30am 20.8 NNW 11 18 1003.3 - 4.6 - - - - - - -
17/03:00am 20.9 N 10 15 1004.2 - 4.6 Recent precip. - - - - - -
17/02:30am 21.0 N 8 11 1004.8 - 4.6 - - - - - - -
17/02:00am 21.0 N 6 9 1005.0 - 4.4 - - - - - - -
17/01:30am 21.1 NNW 8 11 1005.8 - 4.2 - - - - - - -
17/01:00am 21.2 NNW 11 16 1006.0 - 4.2 - - - - - - -
17/12:30am 21.7 NNW 5 7 1007.4 - 4.2 - - - - - - -
17/12:00am 22.1 NNE 6 9 1007.2 - 4.0 - - - - - - -
 
Date/Time
EDT
Temp

°C
Wind Pressure Rain
since 9am
mm
Weather Cloud Vis
km
Sea
Height
m
Swell
Dir
 
Speed
knots
Gust
knots
hPa Trend Height
m
Period
s
Dir
16/11:30pm 21.8 E 12 16 1006.5 - 4.0 - - - - - - -
16/11:00pm 21.1 ESE 11 17 1006.8 - 4.0 - - - - - - -
16/10:53pm 21.1 S 6 15 1007.1 - 3.4 - - - - - - -
16/10:30pm 21.8 WSW 5 9 1009.2 - 1.4 - - - - - - -
16/10:00pm 23.1 SW 12 21 1008.3 - 0.0 - - - - - - -
16/09:44pm 23.2 N 8 17 1007.3 - 0.0 - - - - - - -
16/09:30pm 23.0 N 11 18 1005.2 - 0.0 - - - - - - -
16/09:00pm 22.9 NNE 11 17 1004.8 - 0.0 - - - - - - -
16/08:30pm 22.9 NNE 13 18 1004.7 - 0.0 - - - - - - -
16/08:00pm 22.7 NNE 10 17 1004.7 - 0.0 - - - - - - -
16/07:30pm 23.0 NNE 11 17 1004.5 - 0.0 - - - - - - -
16/07:00pm 23.4 NNE 12 24 1004.1 - 0.0 - - - - - - -
16/06:30pm 23.9 NNE 15 25 1003.8 - 0.0 - - - - - - -
16/06:29pm 24.0 NNE 15 25 1003.8 - 0.0 - - - - - - -
16/06:00pm 24.0 NNE 13 21 1003.6 - 0.0 - - - - - - -
16/05:46pm 23.9 NNE 15 25 1003.6 - 0.0 - - - - - - -
16/05:30pm 24.6 NNE 12 23 1003.8 - 0.0 - - - - - - -
16/05:00pm 24.5 NNE 12 19 1004.4 - 0.0 - - - - - - -
16/04:30pm 26.0 NNE 12 22 1004.8 - 0.0 - - - - - - -
16/04:00pm 25.9 NNE 13 22 1005.1 - 0.0 - - - - - - -
16/03:30pm 26.9 NNE 13 21 1005.5 - 0.0 - - - - - - -
16/03:00pm 27.0 NNE 12 23 1006.1 - 0.0 - - - - - - -
16/02:30pm 27.1 NNE 12 19 1006.2 - 0.0 - - - - - - -
16/02:00pm 27.7 NNE 11 17 1006.4 - 0.0 - - - - - - -
16/01:30pm 26.9 NE 11 17 1007.0 - 0.0 - - - - - - -
16/01:00pm 27.6 NNE 10 15 1007.4 - 0.0 - - - - - - -
16/12:30pm 27.2 NNE 10 16 1007.6 - 0.0 - - - - - - -
16/12:00pm 27.6 NNE 11 18 1008.2 - 0.0 - - - - - - -
16/11:30am 27.9 N 8 12 1008.5 - 0.0 - - - - - - -
16/11:00am 28.7 N 7 13 1009.0 - 0.0 - - - - - - -
16/10:30am 27.3 NNE 7 11 1009.3 - 0.0 - - - - - - -
16/10:00am 26.8 N 8 13 1009.6 - 0.0 - - - - - - -
16/09:30am 25.6 N 8 13 1009.8 - 0.0 - - - - - - -
16/09:00am 24.5 N 7 10 1009.9 - 0.0 - - - - - - -
16/08:30am 23.7 NNW 5 7 1010.4 - 0.0 - - - - - - -
16/08:00am 22.3 NW 4 7 1010.6 - 0.0 - - - - - - -
16/07:30am 20.1 N 3 4 1010.2 - 0.0 - - - - - - -
16/07:00am 17.8 N 4 5 1010.0 - 0.0 - - - - - - -
16/06:30am 17.2 NW 5 6 1009.6 - 0.0 - - - - - - -
16/06:00am 16.6 N 4 5 1009.2 - 0.0 - - - - - - -
16/05:30am 18.1 NNW 4 5 1009.5 - 0.0 - - - - - - -
16/05:00am 19.3 NW 5 6 1009.6 - 0.0 - - - - - - -
16/04:30am 19.3 WNW 5 7 1009.5 - 0.0 - - - - - - -
16/04:00am 19.4 WNW 5 7 1009.5 - 0.0 - - - - - - -
16/03:30am 19.5 WNW 7 7 1009.4 - 0.0 - - - - - - -
16/03:00am 19.4 W 6 7 1009.7 - 0.0 - - - - - - -
16/02:30am 19.6 W 6 7 1009.8 - 0.0 - - - - - - -
16/02:00am 19.6 W 6 7 1010.1 - 0.0 - - - - - - -
16/01:30am 19.5 W 6 7 1010.4 - 0.0 - - - - - - -
16/01:00am 19.8 W 6 7 1011.0 - 0.0 - - - - - - -
16/12:30am 20.3 W 5 6 1011.2 - 0.0 - - - - - - -
16/12:00am 20.0 WNW 4 5 1011.6 - 0.0 - - - - - - -
 
Date/Time
EDT
Temp

°C
Wind Pressure Rain
since 9am
mm
Weather Cloud Vis
km
Sea
Height
m
Swell
Dir
 
Speed
knots
Gust
knots
hPa Trend Height
m
Period
s
Dir
15/11:30pm 19.8 WNW 4 5 1011.8 - 0.0 - - - - - - -
15/11:00pm 19.6 W 5 5 1012.0 - 0.0 - - - - - - -
15/10:30pm 19.5 CALM 0 0 1012.0 - 0.0 - - - - - - -
15/10:00pm 19.2 SSE 4 6 1011.9 - 0.0 - - - - - - -
15/09:30pm 19.9 SSE 6 9 1011.8 - 0.0 - - - - - - -
15/09:00pm 20.4 SSE 6 8 1011.6 - 0.0 - - - - - - -
15/08:30pm 20.6 SSE 8 10 1011.4 - 0.0 - - - - - - -
15/08:00pm 20.6 SSE 8 10 1011.3 - 0.0 - - - - - - -
15/07:30pm 20.9 SSE 7 10 1011.0 - 0.0 - - - - - - -
15/07:00pm 22.0 SSE 9 12 1010.8 - 0.0 - - - - - - -
15/06:30pm 22.7 SSE 10 14 1010.4 - 0.0 - - - - - - -
15/06:00pm 22.8 SSE 9 12 1010.2 - 0.0 - - - - - - -
15/05:30pm 23.9 SSE 10 13 1010.0 - 0.0 - - - - - - -
15/05:00pm 24.4 SSE 10 14 1009.9 - 0.0 - - - - - - -
15/04:30pm 24.1 SSE 11 14 1009.7 - 0.0 - - - - - - -
15/04:00pm 25.0 SSE 12 15 1009.8 - 0.0 - - - - - - -
15/03:30pm 25.2 SSE 13 17 1010.0 - 0.0 - - - - - - -
15/03:00pm 25.6 SSE 12 15 1010.1 - 0.0 - - - - - - -
15/02:30pm 25.4 SSE 12 16 1010.3 - 0.0 - - - - - - -
15/02:00pm 25.6 S 12 15 1010.6 - 0.0 - - - - - - -
15/01:30pm 26.2 SSE 11 14 1010.6 - 0.0 - - - - - - -
15/01:00pm 25.4 S 12 15 1010.7 - 0.0 - - - - - - -
15/12:30pm 26.0 S 10 14 1010.9 - 0.0 - - - - - - -
15/12:00pm 25.3 S 11 14 1011.2 - 0.0 - - - - - - -
15/11:30am 25.4 S 9 13 1011.3 - 0.0 - - - - - - -
15/11:00am 25.9 S 8 13 1011.4 - 0.0 - - - - - - -
15/10:30am 24.6 S 9 12 1011.5 - 0.0 - - - - - - -

Other Formats:

Comma delimited format used in spreadsheet applications
http://www.bom.gov.au/fwo/IDN60701/IDN60701.94598.axf

JavaScript Object Notation format (JSON) in row-major order
http://www.bom.gov.au/fwo/IDN60701/IDN60701.94598.json